Time;durP1;ratioP1;P1;durP2;ratioP2;P2;SDS_P1;SDS_P2;PMS_P1;PMS_P2;Temp;Humidity;BMP_temperature;BMP_pressure;BME280_temperature;BME280_humidity;BME280_pressure;Samples;Min_cycle;Max_cycle;Signal;HPM_P1;HPM_P2
2021/08/13 00:02:19;;;;;;;3.70;1.88;;;18.00;58.00;;;;;;5072395;28;20025;-72
2021/08/13 00:04:46;;;;;;;3.78;1.92;;;18.10;59.40;;;;;;5073646;28;20513;-63
2021/08/13 00:07:14;;;;;;;3.22;1.80;;;18.20;58.20;;;;;;5069894;28;20032;-70
2021/08/13 00:09:41;;;;;;;3.90;1.80;;;18.30;55.70;;;;;;5065290;28;20035;-66
2021/08/13 00:12:09;;;;;;;4.82;2.10;;;18.40;58.20;;;;;;5069485;28;20027;-70
2021/08/13 00:14:37;;;;;;;3.92;1.63;;;18.40;58.20;;;;;;5069355;28;20028;-69
2021/08/13 00:17:04;;;;;;;4.07;1.90;;;18.50;56.90;;;;;;5070859;28;20032;-67
2021/08/13 00:19:32;;;;;;;4.18;1.80;;;18.60;56.30;;;;;;5065821;28;20055;-66
2021/08/13 00:21:59;;;;;;;3.97;1.77;;;18.60;56.70;;;;;;5070764;28;20096;-65
2021/08/13 00:24:26;;;;;;;3.95;1.90;;;18.60;56.40;;;;;;5069207;28;20021;-69
2021/08/13 00:26:54;;;;;;;4.40;1.80;;;18.70;57.90;;;;;;5069180;28;20025;-69
2021/08/13 00:29:21;;;;;;;3.53;1.73;;;18.70;57.50;;;;;;5064821;28;20529;-71
2021/08/13 00:31:49;;;;;;;4.88;2.03;;;18.80;56.30;;;;;;5070312;28;20084;-67
2021/08/13 00:34:16;;;;;;;3.53;1.60;;;18.90;56.20;;;;;;5069271;28;20564;-70
2021/08/13 00:36:43;;;;;;;4.95;2.13;;;18.90;56.00;;;;;;5069960;28;20063;-70
2021/08/13 00:39:11;;;;;;;3.85;1.92;;;19.00;55.20;;;;;;5062780;28;20077;-70
2021/08/13 00:41:38;;;;;;;3.80;1.70;;;19.10;56.70;;;;;;5072445;28;20029;-73
2021/08/13 00:44:06;;;;;;;3.35;1.63;;;19.20;54.40;;;;;;5071725;28;20016;-70
2021/08/13 00:46:33;;;;;;;3.25;1.92;;;19.20;55.20;;;;;;5071480;28;20032;-70
2021/08/13 00:49:01;;;;;;;2.53;1.40;;;19.20;54.90;;;;;;5071763;28;20497;-72
2021/08/13 00:51:28;;;;;;;2.88;1.58;;;19.30;54.50;;;;;;5072101;28;20441;-71
2021/08/13 00:53:56;;;;;;;3.88;1.17;;;19.40;54.00;;;;;;5070852;28;20033;-72
2021/08/13 00:56:26;;;;;;;3.15;1.40;;;19.40;54.10;;;;;;5072570;28;20123;-72
2021/08/13 00:58:53;;;;;;;4.13;1.60;;;19.50;54.50;;;;;;5072764;28;20641;-75
2021/08/13 01:01:21;;;;;;;4.20;1.63;;;19.50;54.80;;;;;;5074532;28;20036;-71
2021/08/13 01:03:49;;;;;;;7.43;1.50;;;19.60;53.40;;;;;;5072778;28;20024;-64
2021/08/13 01:06:20;;;;;;;5.72;1.70;;;19.70;52.10;;;;;;5063211;28;20032;-58
2021/08/13 01:08:47;;;;;;;9.03;1.77;;;19.70;54.00;;;;;;5069562;28;20090;-66
2021/08/13 01:11:26;;;;;;;6.72;1.90;;;19.80;50.20;;;;;;5071933;28;20361;-63
2021/08/13 01:13:59;;;;;;;7.32;1.52;;;19.90;50.30;;;;;;5066779;28;20078;-68
2021/08/13 01:16:27;;;;;;;10.00;2.30;;;20.00;49.40;;;;;;5069044;28;20447;-67
2021/08/13 01:19:08;;;;;;;5.82;2.00;;;20.00;48.40;;;;;;5069684;28;20471;-65
2021/08/13 01:21:44;;;;;;;7.35;1.70;;;20.00;48.90;;;;;;5069400;28;20028;-62
2021/08/13 01:24:21;;;;;;;3.50;1.70;;;20.10;48.60;;;;;;5068824;28;20024;-58
2021/08/13 01:27:04;;;;;;;4.07;1.60;;;20.20;49.30;;;;;;5068845;28;20480;-63
2021/08/13 01:29:50;;;;;;;3.30;1.30;;;20.30;48.30;;;;;;5069316;28;20097;-66
2021/08/13 01:32:37;;;;;;;5.78;2.17;;;20.30;50.90;;;;;;5066822;28;20112;-63
2021/08/13 01:35:12;;;;;;;4.15;1.42;;;20.50;47.30;;;;;;5064859;28;20498;-62
2021/08/13 01:37:46;;;;;;;10.68;1.70;;;20.50;48.50;;;;;;5066047;28;20033;-64
2021/08/13 01:40:15;;;;;;;6.13;1.80;;;20.40;49.30;;;;;;5069204;28;20032;-72
2021/08/13 01:42:45;;;;;;;3.60;1.67;;;20.20;49.50;;;;;;5069498;28;20040;-71
2021/08/13 01:45:34;;;;;;;4.03;1.55;;;20.00;51.40;;;;;;5064807;28;20032;-73
2021/08/13 01:48:04;;;;;;;4.38;1.60;;;19.90;51.10;;;;;;5068563;28;20154;-71
2021/08/13 01:50:31;;;;;;;3.80;1.45;;;20.00;51.10;;;;;;5068496;28;20036;-70
2021/08/13 01:53:02;;;;;;;5.13;1.60;;;20.20;52.00;;;;;;5068789;28;20131;-70
2021/08/13 01:55:33;;;;;;;4.63;1.42;;;20.30;51.70;;;;;;5062034;28;20031;-66
2021/08/13 01:58:02;;;;;;;3.33;1.48;;;20.30;52.00;;;;;;5067855;28;20036;-67
2021/08/13 02:00:30;;;;;;;3.47;1.27;;;20.50;50.70;;;;;;5071726;28;20029;-68
2021/08/13 02:02:58;;;;;;;3.25;1.20;;;20.60;51.90;;;;;;5068338;28;20043;-64
2021/08/13 02:05:32;;;;;;;6.88;1.50;;;20.60;51.60;;;;;;5063316;28;20066;-70
2021/08/13 02:08:02;;;;;;;2.95;1.50;;;20.70;51.20;;;;;;5066998;28;20028;-64
2021/08/13 02:10:32;;;;;;;4.55;1.20;;;20.80;50.20;;;;;;5068203;28;20040;-68
2021/08/13 02:12:59;;;;;;;5.18;1.40;;;20.80;50.60;;;;;;5068475;28;20106;-65
2021/08/13 02:15:27;;;;;;;3.83;1.02;;;21.00;50.60;;;;;;5063488;28;20048;-69
2021/08/13 02:18:14;;;;;;;4.05;1.75;;;21.10;49.60;;;;;;5068452;28;20033;-73
2021/08/13 02:20:44;;;;;;;5.95;1.50;;;21.10;50.30;;;;;;5065079;28;20035;-72
2021/08/13 02:23:12;;;;;;;5.18;1.45;;;21.20;48.90;;;;;;5066212;28;20063;-74
2021/08/13 02:25:43;;;;;;;5.47;1.65;;;21.10;50.70;;;;;;5066730;28;20432;-68
2021/08/13 02:28:11;;;;;;;8.60;1.17;;;21.30;48.90;;;;;;5065766;28;20083;-72
2021/08/13 02:30:38;;;;;;;3.63;1.23;;;21.40;50.40;;;;;;5073204;28;20455;-69
2021/08/13 02:33:06;;;;;;;4.13;1.10;;;21.50;48.90;;;;;;5072904;28;20035;-71
2021/08/13 02:35:34;;;;;;;4.28;1.55;;;21.30;50.40;;;;;;5067747;28;20073;-70
2021/08/13 02:38:24;;;;;;;3.10;1.23;;;21.50;49.30;;;;;;5073316;28;20031;-70
2021/08/13 02:41:01;;;;;;;3.30;1.40;;;21.50;49.20;;;;;;5069959;28;20421;-60
2021/08/13 02:43:32;;;;;;;3.03;1.60;;;21.90;47.60;;;;;;5061724;28;20691;-62
2021/08/13 02:46:00;;;;;;;6.35;1.10;;;21.90;45.80;;;;;;5066780;28;20063;-65
2021/08/13 02:48:29;;;;;;;5.78;1.58;;;21.90;46.00;;;;;;5067380;28;20033;-61
2021/08/13 02:50:59;;;;;;;4.28;2.08;;;22.00;44.90;;;;;;5067368;28;20112;-63
2021/08/13 02:53:27;;;;;;;2.58;0.88;;;22.10;44.70;;;;;;5062974;28;20097;-60
2021/08/13 02:55:58;;;;;;;4.28;1.10;;;22.20;47.80;;;;;;5066388;28;20116;-65
2021/08/13 02:58:48;;;;;;;7.10;1.58;;;22.30;46.50;;;;;;5066897;28;20204;-62
2021/08/13 03:01:22;;;;;;;5.32;2.00;;;22.50;46.00;;;;;;5064243;28;20047;-62
2021/08/13 03:03:50;;;;;;;5.60;2.08;;;22.30;45.70;;;;;;5058618;28;20081;-61
2021/08/13 03:06:20;;;;;;;9.13;2.28;;;22.30;46.10;;;;;;5066739;28;20036;-62
2021/08/13 03:08:49;;;;;;;5.78;1.83;;;22.30;46.90;;;;;;5067588;28;20020;-61
2021/08/13 03:11:18;;;;;;;6.53;2.97;;;22.40;44.90;;;;;;5066906;28;20060;-63
2021/08/13 03:13:46;;;;;;;4.50;2.17;;;22.40;45.10;;;;;;5062466;28;20052;-63
2021/08/13 03:16:15;;;;;;;5.47;2.15;;;22.50;46.00;;;;;;5062789;28;20028;-62
2021/08/13 03:18:43;;;;;;;5.10;2.03;;;22.50;45.70;;;;;;5063043;28;20028;-60
2021/08/13 03:21:11;;;;;;;5.78;2.05;;;22.40;45.80;;;;;;5072353;28;20103;-68
2021/08/13 03:23:39;;;;;;;8.82;2.42;;;22.00;46.60;;;;;;5050918;28;20029;-66
2021/08/13 03:26:10;;;;;;;4.50;1.92;;;21.70;47.60;;;;;;5071623;28;20028;-66
2021/08/13 03:28:37;;;;;;;4.40;1.63;;;21.50;48.70;;;;;;5070254;28;20063;-67
2021/08/13 03:31:05;;;;;;;5.93;2.40;;;21.60;48.20;;;;;;5071601;28;20059;-67
2021/08/13 03:33:32;;;;;;;10.68;4.03;;;21.60;48.40;;;;;;5065791;28;20028;-64
2021/08/13 03:36:00;;;;;;;15.23;4.95;;;21.80;48.20;;;;;;5071073;28;20070;-70
2021/08/13 03:38:28;;;;;;;20.42;8.35;;;21.80;48.60;;;;;;5071252;28;20032;-67
2021/08/13 03:40:55;;;;;;;19.67;7.40;;;21.90;48.00;;;;;;5072367;28;20085;-71
2021/08/13 03:43:23;;;;;;;16.83;6.85;;;22.10;47.70;;;;;;5064037;28;20021;-72
2021/08/13 03:45:51;;;;;;;15.52;7.15;;;22.20;47.50;;;;;;5065036;28;20013;-68
2021/08/13 03:48:18;;;;;;;14.93;7.10;;;22.40;46.60;;;;;;5065621;28;20091;-69
2021/08/13 03:50:46;;;;;;;15.65;7.22;;;22.50;47.60;;;;;;5063300;28;20037;-66
2021/08/13 03:53:13;;;;;;;14.25;6.78;;;22.40;47.70;;;;;;5065726;28;20040;-67
2021/08/13 03:55:40;;;;;;;14.32;5.38;;;22.50;47.60;;;;;;5063324;28;20056;-65
2021/08/13 03:58:08;;;;;;;11.82;5.65;;;22.60;47.40;;;;;;5066635;28;20055;-73
2021/08/13 04:00:35;;;;;;;9.48;4.28;;;22.70;47.30;;;;;;5067417;28;20074;-66
2021/08/13 04:03:03;;;;;;;11.77;5.18;;;22.70;46.00;;;;;;5068353;28;20532;-72
2021/08/13 04:05:30;;;;;;;12.00;4.68;;;22.70;46.90;;;;;;5061790;28;20033;-66
2021/08/13 04:07:58;;;;;;;9.82;3.75;;;22.70;46.70;;;;;;5066902;28;20051;-67
2021/08/13 04:10:26;;;;;;;10.52;4.03;;;22.80;46.60;;;;;;5064769;28;20475;-70
2021/08/13 04:12:54;;;;;;;8.50;3.35;;;22.80;46.40;;;;;;5066920;28;20387;-69
2021/08/13 04:15:22;;;;;;;9.05;4.35;;;22.90;45.10;;;;;;5060026;28;20033;-65
2021/08/13 04:17:49;;;;;;;7.90;3.67;;;22.90;46.90;;;;;;5067425;28;20076;-70
2021/08/13 04:20:17;;;;;;;9.32;3.53;;;23.00;46.30;;;;;;5068086;28;20046;-72
2021/08/13 04:22:44;;;;;;;11.38;3.78;;;23.10;45.60;;;;;;5066223;28;20021;-71
2021/08/13 04:25:12;;;;;;;10.27;3.95;;;23.10;46.50;;;;;;5067211;28;20163;-70
2021/08/13 04:27:40;;;;;;;9.27;3.47;;;23.20;45.60;;;;;;5066861;28;20095;-69
2021/08/13 04:30:12;;;;;;;7.05;3.05;;;23.30;45.90;;;;;;5067705;28;20057;-73
2021/08/13 04:32:40;;;;;;;10.15;3.00;;;23.40;45.90;;;;;;5067770;28;20020;-66
2021/08/13 04:35:08;;;;;;;6.63;3.03;;;23.40;44.00;;;;;;5067549;28;20024;-68
2021/08/13 04:37:36;;;;;;;7.55;3.20;;;23.40;44.70;;;;;;5067452;28;20135;-72
2021/08/13 04:40:04;;;;;;;11.32;3.20;;;23.30;46.40;;;;;;5067114;28;20029;-69
2021/08/13 04:42:32;;;;;;;8.25;3.35;;;23.40;45.90;;;;;;5067417;28;20028;-64
2021/08/13 04:45:03;;;;;;;7.70;3.33;;;23.40;46.60;;;;;;5069069;28;20099;-63
2021/08/13 04:47:30;;;;;;;7.80;3.20;;;23.50;45.70;;;;;;5071851;28;20048;-66
2021/08/13 04:49:58;;;;;;;10.20;3.10;;;23.50;44.00;;;;;;5070864;28;20452;-65
2021/08/13 04:52:25;;;;;;;10.18;3.75;;;23.60;45.30;;;;;;5070341;28;20032;-67
2021/08/13 04:54:52;;;;;;;7.30;3.33;;;23.50;46.70;;;;;;5069615;28;21164;-67
2021/08/13 04:57:20;;;;;;;6.97;2.63;;;23.60;45.30;;;;;;5071044;28;20024;-71
2021/08/13 04:59:47;;;;;;;6.63;2.95;;;23.60;46.00;;;;;;5070971;28;20052;-64
2021/08/13 05:02:20;;;;;;;5.65;2.58;;;23.60;45.50;;;;;;5071209;28;20021;-64
2021/08/13 05:04:48;;;;;;;9.75;3.15;;;23.80;46.00;;;;;;5070990;28;20428;-65
2021/08/13 05:07:15;;;;;;;7.28;3.17;;;23.80;45.30;;;;;;5069224;28;20028;-69
2021/08/13 05:09:42;;;;;;;10.02;2.95;;;23.80;46.50;;;;;;5070174;28;20032;-69
2021/08/13 05:12:10;;;;;;;7.68;3.00;;;23.80;46.60;;;;;;5070383;28;20040;-68
2021/08/13 05:14:37;;;;;;;6.90;3.10;;;23.80;45.60;;;;;;5070897;28;20108;-70
2021/08/13 05:17:05;;;;;;;5.88;2.67;;;23.90;46.30;;;;;;5071078;28;20475;-68
2021/08/13 05:19:32;;;;;;;7.50;2.60;;;23.90;44.50;;;;;;5071470;28;20028;-67
2021/08/13 05:21:59;;;;;;;7.43;3.35;;;23.90;45.60;;;;;;5071484;28;20017;-64
2021/08/13 05:24:27;;;;;;;7.45;3.13;;;24.00;46.10;;;;;;5071453;28;20055;-71
2021/08/13 05:26:55;;;;;;;4.25;2.40;;;23.90;44.30;;;;;;5070635;28;20035;-63
2021/08/13 05:29:22;;;;;;;7.18;3.05;;;23.90;45.50;;;;;;5070798;28;21106;-67
2021/08/13 05:31:55;;;;;;;5.13;2.33;;;23.90;46.00;;;;;;5070730;28;20020;-67
2021/08/13 05:34:23;;;;;;;6.95;3.15;;;24.00;46.00;;;;;;5070342;28;20044;-67
2021/08/13 05:36:51;;;;;;;4.97;2.83;;;23.90;46.80;;;;;;5070174;28;20064;-70
2021/08/13 05:39:19;;;;;;;7.95;2.92;;;24.00;46.80;;;;;;5069864;28;20031;-62
2021/08/13 05:41:50;;;;;;;4.68;2.30;;;23.90;46.70;;;;;;5070278;28;20498;-63
2021/08/13 05:44:18;;;;;;;4.50;2.30;;;23.90;47.00;;;;;;5068536;28;20372;-65
2021/08/13 05:46:46;;;;;;;9.38;2.53;;;24.00;44.80;;;;;;5070405;28;20059;-64
2021/08/13 05:49:14;;;;;;;7.82;3.15;;;24.10;46.20;;;;;;5070415;28;20028;-67
2021/08/13 05:51:42;;;;;;;6.93;2.30;;;24.00;46.10;;;;;;5071635;28;20032;-67
2021/08/13 05:54:09;;;;;;;6.25;2.03;;;23.90;45.10;;;;;;5070645;28;20032;-63
2021/08/13 05:56:37;;;;;;;8.57;2.55;;;23.90;45.50;;;;;;5071055;28;20027;-65
2021/08/13 05:59:11;;;;;;;5.43;2.50;;;24.00;43.70;;;;;;5070699;28;20076;-67
2021/08/13 06:01:39;;;;;;;4.28;2.30;;;23.90;45.80;;;;;;5071093;28;20101;-63
2021/08/13 06:04:10;;;;;;;4.38;2.28;;;23.90;45.80;;;;;;5070202;28;20032;-65
2021/08/13 06:06:42;;;;;;;4.80;2.28;;;23.80;47.30;;;;;;5070663;28;20486;-67
2021/08/13 06:09:10;;;;;;;6.05;2.08;;;23.90;46.00;;;;;;5069981;28;20096;-68
2021/08/13 06:11:38;;;;;;;5.88;2.30;;;23.80;46.80;;;;;;5070362;28;20056;-76
2021/08/13 06:14:05;;;;;;;5.13;2.17;;;23.80;47.10;;;;;;5070424;28;20028;-70
2021/08/13 06:16:33;;;;;;;7.80;2.05;;;23.70;46.80;;;;;;5070164;28;20050;-69
2021/08/13 06:19:01;;;;;;;6.45;2.42;;;23.80;47.50;;;;;;5069997;28;20399;-70
2021/08/13 06:21:39;;;;;;;5.55;2.17;;;23.60;47.20;;;;;;5069812;28;20435;-73
2021/08/13 06:24:07;;;;;;;2.35;1.67;;;23.50;44.60;;;;;;5062107;28;20066;-70
2021/08/13 06:26:54;;;;;;;5.57;2.00;;;23.40;47.20;;;;;;5082681;28;20489;-69
2021/08/13 06:29:25;;;;;;;3.28;1.90;;;23.40;46.70;;;;;;5081490;28;20044;-72
2021/08/13 06:31:53;;;;;;;12.73;2.20;;;23.20;47.70;;;;;;5071371;28;20068;-70
2021/08/13 06:34:20;;;;;;;4.50;1.95;;;23.10;46.40;;;;;;5071421;28;20360;-72
2021/08/13 06:36:48;;;;;;;5.07;2.05;;;23.00;47.60;;;;;;5071525;28;20415;-73
2021/08/13 06:39:19;;;;;;;4.40;2.00;;;22.70;48.20;;;;;;5069493;28;20021;-70
2021/08/13 06:42:10;;;;;;;5.70;2.00;;;22.60;48.40;;;;;;5071292;28;20456;-64
2021/08/13 06:44:41;;;;;;;5.40;1.90;;;22.40;48.90;;;;;;5069677;28;20036;-67
2021/08/13 06:47:09;;;;;;;3.63;1.90;;;22.10;47.60;;;;;;5070565;28;20073;-64
2021/08/13 06:49:41;;;;;;;4.88;1.65;;;22.00;49.40;;;;;;5070897;28;20020;-67
2021/08/13 06:52:10;;;;;;;2.90;1.42;;;21.80;50.90;;;;;;5071310;28;20036;-67
2021/08/13 06:54:41;;;;;;;5.60;1.52;;;21.70;49.50;;;;;;5069731;28;20095;-71
2021/08/13 06:57:45;;;;;;;5.03;2.15;;;21.50;50.50;;;;;;5070762;28;20390;-68
2021/08/13 07:00:15;;;;;;;2.83;1.60;;;21.30;52.20;;;;;;5068839;28;20025;-66
2021/08/13 07:03:01;;;;;;;3.67;1.90;;;21.10;52.10;;;;;;5069879;28;20540;-64
2021/08/13 07:08:46;;;;;;;6.35;2.15;;;20.80;52.10;;;;;;5009035;28;20053;-71
2021/08/13 07:11:16;;;;;;;4.10;1.45;;;20.80;52.90;;;;;;5012397;28;20041;-69
2021/08/13 07:13:44;;;;;;;6.38;2.83;;;20.60;52.50;;;;;;5053528;28;20025;-68
2021/08/13 07:16:11;;;;;;;10.15;2.15;;;20.50;52.60;;;;;;5069966;28;20044;-68
2021/08/13 07:18:39;;;;;;;7.15;1.80;;;20.50;52.50;;;;;;5067463;28;20039;-65
2021/08/13 07:21:06;;;;;;;4.13;1.67;;;20.40;52.70;;;;;;5064454;28;20121;-69
2021/08/13 07:24:12;;;;;;;3.88;2.20;;;20.30;54.80;;;;;;5070345;28;20100;-70
2021/08/13 07:26:40;;;;;;;6.88;2.90;;;20.10;54.40;;;;;;5069017;28;20193;-67
2021/08/13 07:29:24;;;;;;;6.05;2.58;;;20.10;54.60;;;;;;5068606;28;20044;-74
2021/08/13 07:31:53;;;;;;;9.73;2.50;;;20.10;55.10;;;;;;5065749;28;20093;-67
2021/08/13 07:34:21;;;;;;;6.05;2.90;;;20.10;55.40;;;;;;5071579;28;20048;-72
2021/08/13 07:36:49;;;;;;;3.08;2.10;;;20.00;55.70;;;;;;5069771;28;20047;-71
2021/08/13 07:39:17;;;;;;;9.32;2.30;;;19.80;56.20;;;;;;5065971;28;20108;-71
2021/08/13 07:41:47;;;;;;;4.82;1.83;;;19.70;56.60;;;;;;5068220;28;20364;-71
2021/08/13 07:44:15;;;;;;;5.95;2.25;;;19.60;56.40;;;;;;5067839;28;20507;-67
2021/08/13 07:47:01;;;;;;;6.30;2.13;;;19.50;57.00;;;;;;5063887;28;20029;-69
2021/08/13 07:49:29;;;;;;;2.95;1.77;;;19.40;56.90;;;;;;5067337;28;20078;-70
2021/08/13 07:51:57;;;;;;;7.03;2.55;;;19.40;57.60;;;;;;5066625;28;20071;-69
2021/08/13 07:54:25;;;;;;;5.20;2.28;;;19.30;57.90;;;;;;5067340;28;20025;-69
2021/08/13 07:56:53;;;;;;;5.75;2.20;;;19.30;58.00;;;;;;5064968;28;20525;-71
2021/08/13 07:59:20;;;;;;;4.88;1.80;;;19.30;57.70;;;;;;5067264;28;20028;-72
2021/08/13 08:02:00;;;;;;;4.28;1.70;;;19.20;58.20;;;;;;5070133;28;20036;-70
2021/08/13 08:04:32;;;;;;;8.65;2.33;;;19.10;57.80;;;;;;5069414;28;20189;-73
2021/08/13 08:07:12;;;;;;;3.85;1.90;;;19.10;58.10;;;;;;5064894;28;20210;-72
2021/08/13 08:09:42;;;;;;;4.68;2.05;;;19.00;58.10;;;;;;5065586;28;20036;-73
2021/08/13 08:12:13;;;;;;;7.53;1.95;;;18.90;58.20;;;;;;5070675;28;20395;-73
2021/08/13 08:14:44;;;;;;;4.13;1.83;;;18.90;58.70;;;;;;5072020;28;20047;-72
2021/08/13 08:17:20;;;;;;;4.43;1.63;;;18.90;58.50;;;;;;5064314;28;20029;-70
2021/08/13 08:19:48;;;;;;;5.43;1.98;;;18.80;58.60;;;;;;5066536;28;20079;-64
2021/08/13 08:22:16;;;;;;;3.90;2.28;;;18.80;58.60;;;;;;5070704;28;20481;-69
2021/08/13 08:24:49;;;;;;;6.03;2.20;;;18.70;58.50;;;;;;5071945;28;20036;-69
2021/08/13 08:27:32;;;;;;;4.13;1.88;;;18.70;58.80;;;;;;5067503;28;20028;-73
2021/08/13 08:30:04;;;;;;;2.90;1.80;;;18.70;58.90;;;;;;5066190;28;20132;-70
2021/08/13 08:32:36;;;;;;;6.07;2.38;;;18.70;58.80;;;;;;5072580;28;20032;-69
2021/08/13 08:35:07;;;;;;;4.60;1.95;;;18.60;58.90;;;;;;5075000;28;20078;-68
2021/08/13 08:37:35;;;;;;;4.03;1.73;;;18.60;58.90;;;;;;5065987;28;20026;-69
2021/08/13 08:40:03;;;;;;;4.78;2.08;;;18.60;58.80;;;;;;5069419;28;20061;-70
2021/08/13 08:42:31;;;;;;;3.40;1.60;;;18.60;59.40;;;;;;5067938;28;20024;-69
2021/08/13 08:44:59;;;;;;;3.95;2.05;;;18.50;58.80;;;;;;5072802;28;20031;-71
2021/08/13 08:47:27;;;;;;;3.88;1.98;;;18.50;58.90;;;;;;5063562;28;20021;-70
2021/08/13 08:50:07;;;;;;;4.43;1.88;;;18.50;58.90;;;;;;5067107;28;20059;-69
2021/08/13 08:52:39;;;;;;;4.72;2.40;;;18.50;59.50;;;;;;5073620;28;20420;-72
2021/08/13 08:55:08;;;;;;;5.03;2.45;;;18.50;59.30;;;;;;5075990;28;20502;-71
2021/08/13 08:57:40;;;;;;;5.03;2.10;;;18.40;59.20;;;;;;5068566;28;20032;-71
2021/08/13 09:03:29;;;;;;;9.35;2.95;;;18.40;60.40;;;;;;5011319;28;20259;-71
2021/08/13 09:05:56;;;;;;;6.43;2.95;;;18.30;59.80;;;;;;5004952;28;20041;-72
2021/08/13 09:08:24;;;;;;;10.90;3.75;;;18.30;60.70;;;;;;5042466;28;20033;-68
2021/08/13 09:10:52;;;;;;;10.93;4.38;;;18.40;60.70;;;;;;5071624;28;20560;-66
2021/08/13 09:13:38;;;;;;;14.40;4.78;;;18.30;60.00;;;;;;5075951;28;20425;-63
2021/08/13 09:19:50;;;;;;;9.30;4.72;;;18.30;60.10;;;;;;4961120;28;20117;-70
2021/08/13 09:22:25;;;;;;;11.40;4.55;;;18.30;60.30;;;;;;4975191;28;20031;-75
2021/08/13 09:24:55;;;;;;;12.48;5.45;;;18.30;60.00;;;;;;4976440;28;20367;-70
2021/08/13 09:27:27;;;;;;;10.80;4.65;;;18.30;60.10;;;;;;5007029;28;20033;-64
2021/08/13 09:30:15;;;;;;;12.48;5.32;;;18.30;60.10;;;;;;5071610;28;20037;-66
2021/08/13 09:32:57;;;;;;;13.50;5.93;;;18.30;60.20;;;;;;5073844;28;20219;-61
2021/08/13 09:39:32;;;;;;;9.80;5.10;;;18.30;60.40;;;;;;5058554;28;20043;-65
2021/08/13 09:45:08;;;;;;;16.10;6.65;;;18.30;60.50;;;;;;5066918;28;20052;-66
2021/08/13 09:47:40;;;;;;;15.23;5.47;;;18.20;60.60;;;;;;5069256;28;20079;-68
2021/08/13 09:54:13;;;;;;;12.20;6.88;;;18.20;60.80;;;;;;5046754;28;20074;-66
2021/08/13 09:56:42;;;;;;;13.32;6.47;;;18.20;60.80;;;;;;5067780;28;20040;-74
2021/08/13 09:59:54;;;;;;;;;;;;;;;;;;;;;
2021/08/13 10:02:22;;;;;;;;;;;18.10;60.80;;;;;;5070949;28;20048;-71
2021/08/13 10:04:50;;;;;;;15.52;6.55;;;18.10;60.80;;;;;;5074857;28;19951;-70
2021/08/13 10:07:20;;;;;;;14.02;6.53;;;18.10;60.80;;;;;;5070141;28;20052;-68
2021/08/13 10:09:52;;;;;;;14.13;6.30;;;18.00;60.80;;;;;;5073118;28;20023;-67
2021/08/13 10:12:20;;;;;;;15.48;6.88;;;18.00;61.00;;;;;;5073660;28;20502;-70
2021/08/13 10:14:56;;;;;;;12.10;6.30;;;18.00;61.10;;;;;;5075792;28;20493;-68
2021/08/13 10:17:23;;;;;;;14.57;7.05;;;18.00;61.30;;;;;;5069420;28;20100;-65
2021/08/13 10:19:52;;;;;;;15.30;6.00;;;17.90;61.80;;;;;;5074104;28;20082;-69
2021/08/13 10:22:21;;;;;;;16.10;6.65;;;17.90;61.60;;;;;;5073322;28;20032;-67
2021/08/13 10:24:50;;;;;;;11.32;6.20;;;17.80;61.60;;;;;;5073450;28;20024;-65
2021/08/13 10:27:40;;;;;;;18.20;7.57;;;17.80;62.00;;;;;;5068394;28;20028;-63
2021/08/13 10:30:20;;;;;;;20.42;7.88;;;17.80;61.60;;;;;;5071246;28;20395;-69
2021/08/13 10:32:50;;;;;;;17.48;7.13;;;17.80;61.80;;;;;;5072124;28;20100;-69
2021/08/13 10:35:31;;;;;;;12.43;6.57;;;17.80;61.70;;;;;;5074455;28;20036;-74
2021/08/13 10:38:27;;;;;;;12.93;6.75;;;17.80;61.80;;;;;;5071998;28;20371;-73
2021/08/13 10:40:59;;;;;;;12.48;5.88;;;17.80;61.80;;;;;;5070178;28;20063;-75
2021/08/13 10:44:15;;;;;;;13.35;5.72;;;17.80;61.80;;;;;;5070924;28;20032;-69
2021/08/13 10:46:48;;;;;;;15.35;6.43;;;17.80;61.80;;;;;;5067259;28;20024;-71
2021/08/13 10:49:29;;;;;;;12.18;6.47;;;17.80;61.70;;;;;;5075340;28;20024;-68
2021/08/13 10:52:05;;;;;;;9.70;5.90;;;17.80;61.80;;;;;;5075054;28;20111;-73
2021/08/13 10:54:44;;;;;;;15.02;6.25;;;17.80;61.80;;;;;;5075638;28;20082;-71
2021/08/13 10:57:13;;;;;;;10.75;5.72;;;17.70;61.70;;;;;;5065312;28;20472;-71
2021/08/13 10:59:41;;;;;;;14.35;6.00;;;17.70;61.80;;;;;;5074123;28;20086;-69
2021/08/13 11:02:15;;;;;;;12.15;6.30;;;17.70;61.90;;;;;;5073704;28;20028;-71
2021/08/13 11:04:48;;;;;;;14.85;6.03;;;17.70;61.90;;;;;;5067429;28;20048;-72
2021/08/13 11:07:37;;;;;;;14.02;6.60;;;17.70;61.80;;;;;;5068264;28;20023;-74
2021/08/13 11:10:24;;;;;;;11.80;6.40;;;17.70;61.80;;;;;;5056825;28;20124;-69
2021/08/13 11:13:12;;;;;;;12.02;6.05;;;17.70;61.70;;;;;;5070288;28;20067;-71
2021/08/13 11:15:39;;;;;;;9.95;5.57;;;17.70;61.70;;;;;;5073479;28;20031;-70
2021/08/13 11:18:29;;;;;;;13.80;5.95;;;17.70;61.80;;;;;;5070283;28;20027;-70
2021/08/13 11:20:59;;;;;;;12.60;5.90;;;17.60;61.60;;;;;;5073604;28;20024;-68
2021/08/13 11:23:27;;;;;;;13.95;7.07;;;17.70;61.70;;;;;;5070308;28;20374;-70
2021/08/13 11:26:07;;;;;;;11.70;5.78;;;17.60;61.70;;;;;;5064587;28;20521;-63
2021/08/13 11:28:34;;;;;;;12.57;6.20;;;17.60;61.70;;;;;;5068270;28;20026;-71
2021/08/13 11:31:28;;;;;;;8.98;5.63;;;17.60;61.70;;;;;;5067931;28;20052;-63
2021/08/13 11:33:56;;;;;;;9.35;5.28;;;17.60;61.60;;;;;;5068906;28;20027;-64
2021/08/13 11:36:51;;;;;;;10.18;5.45;;;17.60;61.70;;;;;;5062760;28;20428;-71
2021/08/13 11:39:39;;;;;;;13.05;6.18;;;17.60;61.70;;;;;;5068024;28;20028;-68
2021/08/13 11:42:10;;;;;;;11.68;6.18;;;17.60;61.70;;;;;;5067125;28;20021;-70
2021/08/13 11:44:38;;;;;;;15.55;5.85;;;17.50;61.80;;;;;;5072118;28;20562;-69
2021/08/13 11:47:07;;;;;;;11.70;5.80;;;17.50;62.00;;;;;;5067651;28;20355;-67
2021/08/13 11:49:43;;;;;;;11.45;5.35;;;17.50;62.00;;;;;;5074098;28;20104;-66
2021/08/13 11:52:10;;;;;;;10.52;5.50;;;17.50;61.90;;;;;;5073155;28;20408;-69
2021/08/13 11:54:38;;;;;;;8.05;5.10;;;17.50;61.90;;;;;;5071068;28;20344;-69
2021/08/13 11:57:23;;;;;;;10.30;5.50;;;17.50;62.00;;;;;;5067645;28;20119;-74
2021/08/13 11:59:52;;;;;;;10.85;5.95;;;17.50;61.90;;;;;;5071381;28;20024;-73
2021/08/13 12:02:34;;;;;;;11.98;5.30;;;17.40;61.90;;;;;;5071703;28;20038;-65
2021/08/13 12:05:10;;;;;;;9.38;4.90;;;17.40;62.00;;;;;;5074205;28;20055;-66
2021/08/13 12:07:39;;;;;;;10.95;5.32;;;17.40;62.10;;;;;;5064803;28;20031;-66
2021/08/13 12:10:31;;;;;;;12.88;5.55;;;17.30;62.10;;;;;;5074194;28;20025;-63
2021/08/13 12:13:09;;;;;;;8.57;4.90;;;17.30;62.20;;;;;;5071389;28;20206;-62
2021/08/13 12:15:39;;;;;;;9.65;5.13;;;17.30;62.20;;;;;;5075282;28;20040;-68
2021/08/13 12:18:07;;;;;;;9.40;5.45;;;17.30;62.30;;;;;;5069953;28;20017;-65
2021/08/13 12:20:51;;;;;;;9.60;5.47;;;17.30;62.40;;;;;;5073972;28;20036;-68
2021/08/13 12:23:19;;;;;;;10.55;5.00;;;17.30;62.40;;;;;;5068843;28;20021;-65
2021/08/13 12:25:47;;;;;;;9.35;4.90;;;17.30;62.40;;;;;;5072863;28;20013;-72
2021/08/13 12:28:18;;;;;;;11.07;4.97;;;17.20;62.40;;;;;;5073181;28;20027;-70
2021/08/13 12:30:45;;;;;;;7.97;4.60;;;17.20;63.10;;;;;;5072860;28;20069;-69
2021/08/13 12:33:18;;;;;;;9.35;4.65;;;17.20;62.60;;;;;;5072794;28;20035;-69
2021/08/13 12:35:51;;;;;;;9.15;5.20;;;17.10;62.50;;;;;;5069040;28;20052;-70
2021/08/13 12:38:37;;;;;;;10.40;5.95;;;17.10;62.60;;;;;;5072819;28;20471;-71
2021/08/13 12:41:05;;;;;;;6.95;4.70;;;17.10;62.60;;;;;;5071336;28;20032;-72
2021/08/13 12:43:33;;;;;;;9.73;5.15;;;17.00;62.70;;;;;;5071533;28;20028;-68
2021/08/13 12:46:00;;;;;;;10.70;4.93;;;17.00;62.70;;;;;;5072484;28;20028;-74
2021/08/13 12:48:28;;;;;;;8.38;4.80;;;17.00;62.80;;;;;;5072123;28;20029;-74
2021/08/13 12:51:00;;;;;;;8.18;4.13;;;17.00;62.90;;;;;;5071665;28;20562;-72
2021/08/13 12:53:37;;;;;;;14.35;5.57;;;16.90;62.90;;;;;;5072316;28;20021;-68
2021/08/13 12:56:18;;;;;;;8.38;4.70;;;16.90;62.90;;;;;;5072174;28;20533;-69
2021/08/13 12:58:46;;;;;;;11.07;5.13;;;16.90;63.00;;;;;;5075944;28;20153;-74
2021/08/13 13:01:28;;;;;;;9.35;4.70;;;16.90;63.00;;;;;;5072486;28;20029;-73
2021/08/13 13:04:15;;;;;;;6.88;4.15;;;16.90;63.10;;;;;;5072842;28;20441;-67
2021/08/13 13:06:44;;;;;;;9.50;4.10;;;16.80;63.10;;;;;;5073969;28;20033;-74
2021/08/13 13:09:12;;;;;;;9.45;4.82;;;16.80;63.20;;;;;;5078199;28;20443;-72
2021/08/13 13:11:40;;;;;;;6.60;4.53;;;16.80;63.20;;;;;;5078990;28;20039;-71
2021/08/13 13:14:07;;;;;;;9.13;4.30;;;16.80;63.30;;;;;;5076294;28;20082;-71
2021/08/13 13:16:38;;;;;;;7.35;4.28;;;16.80;63.30;;;;;;5075518;28;20021;-70
2021/08/13 13:19:20;;;;;;;7.68;4.47;;;16.70;63.90;;;;;;5074804;28;20108;-71
2021/08/13 13:21:48;;;;;;;8.27;4.43;;;16.70;63.40;;;;;;5076102;28;20530;-71
2021/08/13 13:24:26;;;;;;;9.05;4.32;;;16.70;63.50;;;;;;5076021;28;20425;-71
2021/08/13 13:27:11;;;;;;;8.70;4.53;;;16.60;63.40;;;;;;5075830;28;20029;-71
2021/08/13 13:29:47;;;;;;;8.35;4.38;;;16.60;63.40;;;;;;5076114;28;20387;-73
2021/08/13 13:32:20;;;;;;;7.95;4.40;;;16.60;63.50;;;;;;5075969;28;20036;-68